Ana Sayfa
METAR-TAF:

METAR-TAF

Havaalanları :

Downtown_Memorial_Airport

Spartanburg, Güney Carolina, Amerika Birleşik Devletleri

Enlem: 34-55N, Boylam: 081-57W, yükseklik: 246 m

Güncel hava durumu gözlemi

Rapor saat 00:35 UTC de 15 dakika önce yapıldı.
Rüzgar kuzeydan 3 kt
Sıcaklık 8°C
Nem 93%
Basınç 1019 hPa
Görüş mesafesi: 16.1 km
2600 ft yükseklikte çok bulutlu
yağmur

METAR: KSPA 110035Z AUTO 36003KT 10SM RA OVC026 08/07 A3009 RMK AO2

Saat: 19:50 (00:50 UTC)


TAF: eksik

4.000'den fazla havaalanı için hava durumu gözlemleri ve tahminleri (METAR ve TAF raporları).

Kullanılabilir istasyonlar harita üzerinde sarı ve kırmızı noktalarla gösterilir.

İstasyonun adını görmek için fareyi noktanın üzerinde gezdirin.

Sonrasında hava gözlem ve tahminlerini görmek için tıklayın.

Haritayı değiştirmek için: yaklaştırmak için siyah artı işaretli yeşil düğmeye ve uzaklaştırmak için de eksi işaretli düğmeye hızla tıklayın; bitişik haritalar için yeşil okları kullanın.


METAR-TAF: